sensor_id;sensor_type;location;lat;lon;timestamp;P1;durP1;ratioP1;P2;durP2;ratioP2
11642;SDS011;5877;50.930;6.918;2024-03-02T00:07:57;2.70;;;1.80;;
11642;SDS011;5877;50.930;6.918;2024-03-02T00:18:32;1.87;;;1.60;;
11642;SDS011;5877;50.930;6.918;2024-03-02T00:29:05;2.03;;;1.73;;
11642;SDS011;5877;50.930;6.918;2024-03-02T00:39:36;1.83;;;1.60;;
11642;SDS011;5877;50.930;6.918;2024-03-02T06:20:09;2.00;;;1.80;;
11642;SDS011;5877;50.930;6.918;2024-03-02T06:29:54;2.67;;;2.00;;
11642;SDS011;5877;50.930;6.918;2024-03-02T06:39:36;2.40;;;2.03;;
11642;SDS011;5877;50.930;6.918;2024-03-02T06:49:18;3.97;;;2.10;;
11642;SDS011;5877;50.930;6.918;2024-03-02T06:59:00;2.60;;;2.00;;
11642;SDS011;5877;50.930;6.918;2024-03-02T07:08:43;3.50;;;1.93;;
11642;SDS011;5877;50.930;6.918;2024-03-02T07:18:25;2.97;;;2.23;;
11642;SDS011;5877;50.930;6.918;2024-03-02T07:28:08;2.27;;;1.73;;
11642;SDS011;5877;50.930;6.918;2024-03-02T09:05:12;1.20;;;0.80;;
11642;SDS011;5877;50.930;6.918;2024-03-02T09:14:54;2.17;;;1.13;;
11642;SDS011;5877;50.930;6.918;2024-03-02T12:58:40;1.20;;;1.00;;
11642;SDS011;5877;50.930;6.918;2024-03-02T13:08:26;1.40;;;0.90;;
11642;SDS011;5877;50.930;6.918;2024-03-02T13:18:09;2.87;;;0.80;;
11642;SDS011;5877;50.930;6.918;2024-03-02T13:27:51;2.07;;;0.70;;
11642;SDS011;5877;50.930;6.918;2024-03-02T13:37:33;2.53;;;0.80;;
11642;SDS011;5877;50.930;6.918;2024-03-02T13:47:15;1.40;;;1.00;;
11642;SDS011;5877;50.930;6.918;2024-03-02T13:56:58;0.90;;;0.80;;
11642;SDS011;5877;50.930;6.918;2024-03-02T14:06:40;1.80;;;1.00;;
11642;SDS011;5877;50.930;6.918;2024-03-02T14:16:25;1.15;;;0.88;;
11642;SDS011;5877;50.930;6.918;2024-03-02T14:26:07;2.35;;;1.17;;
11642;SDS011;5877;50.930;6.918;2024-03-02T14:35:50;3.60;;;1.30;;
11642;SDS011;5877;50.930;6.918;2024-03-02T14:45:32;1.50;;;1.15;;
11642;SDS011;5877;50.930;6.918;2024-03-02T14:55:14;1.90;;;1.15;;
11642;SDS011;5877;50.930;6.918;2024-03-02T15:04:56;1.30;;;1.05;;
11642;SDS011;5877;50.930;6.918;2024-03-02T15:14:39;1.83;;;1.20;;
11642;SDS011;5877;50.930;6.918;2024-03-02T15:24:27;1.50;;;0.90;;
11642;SDS011;5877;50.930;6.918;2024-03-02T15:34:10;2.37;;;1.10;;
11642;SDS011;5877;50.930;6.918;2024-03-02T15:43:52;2.10;;;1.60;;
11642;SDS011;5877;50.930;6.918;2024-03-02T15:53:35;2.10;;;1.50;;
11642;SDS011;5877;50.930;6.918;2024-03-02T16:03:19;1.50;;;1.27;;
11642;SDS011;5877;50.930;6.918;2024-03-02T16:13:02;1.80;;;1.20;;
11642;SDS011;5877;50.930;6.918;2024-03-02T16:22:45;1.57;;;1.47;;
11642;SDS011;5877;50.930;6.918;2024-03-02T16:32:27;1.80;;;1.30;;
11642;SDS011;5877;50.930;6.918;2024-03-02T16:42:09;1.77;;;1.20;;
11642;SDS011;5877;50.930;6.918;2024-03-02T16:51:52;1.60;;;1.30;;
11642;SDS011;5877;50.930;6.918;2024-03-02T17:01:36;2.97;;;1.13;;
11642;SDS011;5877;50.930;6.918;2024-03-02T17:11:19;1.50;;;1.10;;
11642;SDS011;5877;50.930;6.918;2024-03-02T17:21:02;1.70;;;1.30;;
11642;SDS011;5877;50.930;6.918;2024-03-02T17:30:44;1.83;;;1.50;;
11642;SDS011;5877;50.930;6.918;2024-03-02T17:40:27;1.83;;;1.40;;
11642;SDS011;5877;50.930;6.918;2024-03-02T17:50:09;1.92;;;1.33;;
11642;SDS011;5877;50.930;6.918;2024-03-02T17:59:51;2.00;;;1.77;;
11642;SDS011;5877;50.930;6.918;2024-03-02T18:09:34;1.87;;;1.57;;
11642;SDS011;5877;50.930;6.918;2024-03-02T18:19:17;2.03;;;1.57;;
11642;SDS011;5877;50.930;6.918;2024-03-02T18:28:59;2.23;;;1.43;;
11642;SDS011;5877;50.930;6.918;2024-03-02T18:38:42;2.00;;;1.80;;
11642;SDS011;5877;50.930;6.918;2024-03-02T18:48:24;2.60;;;1.97;;
11642;SDS011;5877;50.930;6.918;2024-03-02T18:58:06;2.93;;;2.30;;
11642;SDS011;5877;50.930;6.918;2024-03-02T19:07:49;4.67;;;2.73;;
11642;SDS011;5877;50.930;6.918;2024-03-02T19:17:31;3.50;;;2.90;;
11642;SDS011;5877;50.930;6.918;2024-03-02T19:27:13;6.25;;;3.45;;
11642;SDS011;5877;50.930;6.918;2024-03-02T19:36:55;4.18;;;3.30;;
11642;SDS011;5877;50.930;6.918;2024-03-02T19:46:39;3.17;;;2.50;;
11642;SDS011;5877;50.930;6.918;2024-03-02T19:56:21;2.78;;;2.30;;
11642;SDS011;5877;50.930;6.918;2024-03-02T20:06:03;3.00;;;2.30;;
11642;SDS011;5877;50.930;6.918;2024-03-02T20:15:46;4.30;;;2.25;;
11642;SDS011;5877;50.930;6.918;2024-03-02T20:25:28;2.53;;;2.10;;
11642;SDS011;5877;50.930;6.918;2024-03-02T20:35:11;2.30;;;2.00;;
11642;SDS011;5877;50.930;6.918;2024-03-02T20:44:53;2.57;;;2.17;;
11642;SDS011;5877;50.930;6.918;2024-03-02T20:54:36;2.23;;;2.00;;
11642;SDS011;5877;50.930;6.918;2024-03-02T21:04:18;3.20;;;2.80;;
11642;SDS011;5877;50.930;6.918;2024-03-02T21:14:01;2.92;;;2.50;;
11642;SDS011;5877;50.930;6.918;2024-03-02T21:23:44;5.27;;;2.67;;
11642;SDS011;5877;50.930;6.918;2024-03-02T21:33:26;5.05;;;2.75;;
11642;SDS011;5877;50.930;6.918;2024-03-02T21:43:09;3.00;;;2.70;;
11642;SDS011;5877;50.930;6.918;2024-03-02T21:52:51;3.25;;;2.88;;
11642;SDS011;5877;50.930;6.918;2024-03-02T22:02:35;3.97;;;3.58;;
11642;SDS011;5877;50.930;6.918;2024-03-02T22:12:17;4.40;;;4.00;;
11642;SDS011;5877;50.930;6.918;2024-03-02T22:21:59;4.65;;;4.20;;
11642;SDS011;5877;50.930;6.918;2024-03-02T22:31:42;5.40;;;4.33;;
11642;SDS011;5877;50.930;6.918;2024-03-02T22:41:24;5.67;;;4.20;;
11642;SDS011;5877;50.930;6.918;2024-03-02T22:51:06;5.40;;;4.65;;
11642;SDS011;5877;50.930;6.918;2024-03-02T23:00:50;4.53;;;4.03;;
11642;SDS011;5877;50.930;6.918;2024-03-02T23:10:39;4.78;;;4.35;;
11642;SDS011;5877;50.930;6.918;2024-03-02T23:20:21;5.18;;;4.68;;
11642;SDS011;5877;50.930;6.918;2024-03-02T23:30:04;6.53;;;5.60;;
11642;SDS011;5877;50.930;6.918;2024-03-02T23:39:47;5.50;;;5.00;;
11642;SDS011;5877;50.930;6.918;2024-03-02T23:49:42;6.60;;;5.30;;
11642;SDS011;5877;50.930;6.918;2024-03-02T23:59:24;5.77;;;5.27;;
